Primavera do Leste, Brazil
Current Conditions -  °F | °C
As of 5:00 PM on Thursday 23 Oct 2014 (Local Time) from SBCY Reporting Station
Scattered Clouds Scattered Clouds  
Wind Chill: 91°   Ceiling: Unl
Heat Index: 98°   Visibility: 6mi
Dew Point: 72°   Wind: 2mph
Humidity: 52%   Direction: 270°W
Pressure: 29.77"   Gusts: NA
Location:  15.55°S, 54.28°W
Report Text: SBCY 232000Z 27002KT 9999 SCT020 33/22 Q1008
Loading
Personal Weather Stations






























Interactive Weather Map
Tropical Storm Tracking
New forecast layout! Learn more

10-Day Weather Forecast

Advertisements
Track Severe Weather on mobile